Time;durP1;ratioP1;P1;durP2;ratioP2;P2;SDS_P1;SDS_P2;PMS_P1;PMS_P2;Temp;Humidity;BMP_temperature;BMP_pressure;BME280_temperature;BME280_humidity;BME280_pressure;Samples;Min_cycle;Max_cycle;Signal;HPM_P1;HPM_P2
2023/05/11 00:01:31;;;;;;;3.13;0.50;;;;;;;11.60;100.00;98550.69;4906818;29;20773;-68
2023/05/11 00:03:59;;;;;;;1.60;0.60;;;;;;;11.61;100.00;98554.94;4904294;29;21435;-68
2023/05/11 00:06:26;;;;;;;1.07;0.57;;;;;;;11.62;100.00;98553.97;4909746;29;20227;-68
2023/05/11 00:08:52;;;;;;;2.10;0.70;;;;;;;11.58;100.00;98557.88;4904720;29;20235;-68
2023/05/11 00:11:19;;;;;;;2.17;0.50;;;;;;;11.59;100.00;98551.66;4906262;29;20831;-68
2023/05/11 00:13:46;;;;;;;0.77;0.67;;;;;;;11.56;100.00;98548.53;4905256;29;20235;-67
2023/05/11 00:16:13;;;;;;;1.67;0.70;;;;;;;11.56;100.00;98551.97;4908353;29;20257;-67
2023/05/11 00:18:40;;;;;;;0.80;0.50;;;;;;;11.55;100.00;98547.72;4881974;29;20230;-67
2023/05/11 00:21:08;;;;;;;0.70;0.50;;;;;;;11.53;100.00;98552.28;4909803;29;20238;-67
2023/05/11 00:23:34;;;;;;;2.87;0.57;;;;;;;11.52;100.00;98553.28;4881393;29;20722;-67
2023/05/11 00:26:01;;;;;;;2.77;0.60;;;;;;;11.52;100.00;98550.66;4904501;29;20678;-67
2023/05/11 00:28:27;;;;;;;0.77;0.60;;;;;;;11.50;100.00;98542.97;4911302;29;20298;-67
2023/05/11 00:30:56;;;;;;;2.00;0.80;;;;;;;11.49;100.00;98541.31;4905599;29;20235;-67
2023/05/11 00:33:22;;;;;;;3.10;0.60;;;;;;;11.47;100.00;98540.66;4908992;29;20310;-67
2023/05/11 00:35:49;;;;;;;0.90;0.60;;;;;;;11.42;100.00;98545.53;4850527;29;20246;-67
2023/05/11 00:38:42;;;;;;;2.10;0.43;;;;;;;11.39;100.00;98542.44;4905484;29;20688;-67
2023/05/11 00:41:09;;;;;;;3.07;0.53;;;;;;;11.39;100.00;98542.44;4871612;28;20249;-67
2023/05/11 00:43:36;;;;;;;3.97;0.50;;;;;;;11.37;100.00;98539.97;4852445;29;20296;-67
2023/05/11 00:46:05;;;;;;;1.23;0.73;;;;;;;11.33;100.00;98534.25;4894342;28;20234;-67
2023/05/11 00:48:32;;;;;;;2.03;0.60;;;;;;;11.32;100.00;98534.41;4889832;29;20238;-67
2023/05/11 00:50:59;;;;;;;2.13;0.80;;;;;;;11.32;100.00;98537.00;4887511;29;20292;-67
2023/05/11 00:53:26;;;;;;;0.80;0.63;;;;;;;11.32;100.00;98527.41;4897545;29;20242;-67
2023/05/11 00:55:55;;;;;;;3.13;0.60;;;;;;;11.33;100.00;98534.25;4831021;29;20328;-67
2023/05/11 00:58:22;;;;;;;1.33;0.60;;;;;;;11.29;100.00;98532.94;4907586;29;20235;-67
2023/05/11 01:00:48;;;;;;;1.73;0.70;;;;;;;11.34;100.00;98528.06;4906917;29;20223;-67
2023/05/11 01:03:16;;;;;;;6.30;0.70;;;;;;;11.34;100.00;98522.81;4893841;29;20884;-67
2023/05/11 01:05:52;;;;;;;2.13;0.60;;;;;;;11.33;100.00;98528.19;4904220;29;20244;-68
2023/05/11 01:08:29;;;;;;;1.20;0.70;;;;;;;11.31;100.00;98532.75;4890898;29;20924;-68
2023/05/11 01:11:07;;;;;;;5.17;0.70;;;;;;;11.29;100.00;98527.72;4878412;29;20240;-68
2023/05/11 01:13:37;;;;;;;1.27;0.50;;;;;;;11.30;100.00;98525.91;4904571;29;20226;-68
2023/05/11 01:16:14;;;;;;;2.30;0.70;;;;;;;11.29;100.00;98527.72;4904497;29;20238;-68
2023/05/11 01:18:51;;;;;;;4.40;0.60;;;;;;;11.29;100.00;98530.31;4904505;29;20309;-68
2023/05/11 01:21:18;;;;;;;3.60;0.70;;;;;;;11.26;100.00;98522.78;4891162;29;20250;-68
2023/05/11 01:24:15;;;;;;;1.43;0.90;;;;;;;11.25;100.00;98528.16;4887125;29;20243;-68
2023/05/11 01:26:59;;;;;;;3.73;1.03;;;;;;;11.21;100.00;98523.25;4879289;29;20707;-68
2023/05/11 01:29:43;;;;;;;1.20;0.90;;;;;;;11.23;100.00;98523.09;4906741;29;20442;-68
2023/05/11 01:32:16;;;;;;;2.73;0.70;;;;;;;11.19;100.00;98519.16;4880818;29;20242;-68
2023/05/11 01:34:45;;;;;;;7.13;1.03;;;;;;;11.18;100.00;98520.94;4902562;29;20233;-68
2023/05/11 01:37:16;;;;;;;4.10;1.43;;;;;;;11.16;100.00;98522.91;4907618;29;20238;-68
2023/05/11 01:39:50;;;;;;;3.53;1.07;;;;;;;11.14;100.00;98524.06;4840631;29;20232;-68
2023/05/11 01:42:22;;;;;;;1.13;1.03;;;;;;;11.15;100.00;98528.31;4900640;29;20235;-68
2023/05/11 01:44:52;;;;;;;2.70;1.03;;;;;;;11.10;100.00;98530.56;4855591;28;20242;-68
2023/05/11 01:47:22;;;;;;;2.27;1.10;;;;;;;11.05;100.00;98525.81;4884756;29;20576;-68
2023/05/11 01:49:51;;;;;;;7.20;1.10;;;;;;;11.02;100.00;98528.75;4905017;29;20253;-68
2023/05/11 01:52:21;;;;;;;4.07;1.40;;;;;;;11.00;100.00;98534.09;4886422;29;20261;-67
2023/05/11 01:54:51;;;;;;;1.70;1.27;;;;;;;11.01;100.00;98525.28;4884774;29;20325;-67
2023/05/11 01:57:19;;;;;;;1.37;1.27;;;;;;;10.99;100.00;98523.84;4883084;29;20624;-67
2023/05/11 01:59:48;;;;;;;3.37;1.30;;;;;;;10.99;100.00;98522.03;4902294;29;20230;-67
2023/05/11 02:02:16;;;;;;;3.20;1.27;;;;;;;10.97;100.00;98528.41;4888968;29;20241;-67
2023/05/11 02:04:45;;;;;;;2.20;1.10;;;;;;;10.92;100.00;98529.69;4892854;29;20627;-68
2023/05/11 02:07:14;;;;;;;5.03;1.20;;;;;;;10.90;100.00;98528.19;4906554;29;21796;-68
2023/05/11 02:09:41;;;;;;;3.03;1.30;;;;;;;10.88;100.00;98530.97;4887429;29;20247;-68
2023/05/11 02:12:10;;;;;;;4.97;1.60;;;;;;;10.84;100.00;98527.03;4902876;29;20346;-68
2023/05/11 02:14:39;;;;;;;6.17;1.90;;;;;;;10.83;100.00;98530.59;4887488;29;20225;-68
2023/05/11 02:17:07;;;;;;;3.97;1.60;;;;;;;10.78;100.00;98527.63;4892421;29;20239;-67
2023/05/11 02:19:35;;;;;;;2.50;1.20;;;;;;;10.77;100.00;98528.59;4893619;29;20323;-67
2023/05/11 02:22:04;;;;;;;4.27;1.30;;;;;;;10.70;100.00;98527.59;4893758;29;20255;-67
2023/05/11 02:24:33;;;;;;;1.93;1.27;;;;;;;10.66;100.00;98529.66;4896804;29;20234;-67
2023/05/11 02:27:00;;;;;;;5.20;1.40;;;;;;;10.67;100.00;98531.31;4907914;29;20713;-67
2023/05/11 02:29:27;;;;;;;3.40;1.20;;;;;;;10.63;100.00;98522.16;4904293;29;20234;-67
2023/05/11 02:31:57;;;;;;;2.70;1.40;;;;;;;10.63;100.00;98528.19;4877170;29;20249;-67
2023/05/11 02:34:27;;;;;;;3.90;1.50;;;;;;;10.64;100.00;98529.00;4883745;29;20241;-67
2023/05/11 02:36:59;;;;;;;4.00;1.43;;;;;;;10.63;100.00;98532.59;4909606;29;20639;-67
2023/05/11 02:39:35;;;;;;;4.33;1.53;;;;;;;10.65;100.00;98529.84;4891488;29;20233;-67
2023/05/11 02:42:09;;;;;;;1.60;1.33;;;;;;;10.70;100.00;98531.00;4905948;29;20242;-67
2023/05/11 02:44:37;;;;;;;2.40;1.50;;;;;;;10.72;100.00;98533.47;4909943;29;20625;-67
2023/05/11 02:47:09;;;;;;;4.60;1.40;;;;;;;10.68;100.00;98532.94;4905309;29;20293;-67
2023/05/11 02:49:38;;;;;;;4.60;1.50;;;;;;;10.72;100.00;98531.66;4911133;29;20281;-67
2023/05/11 02:52:09;;;;;;;2.10;1.10;;;;;;;10.76;100.00;98529.59;4902271;29;20333;-67
2023/05/11 02:54:44;;;;;;;1.90;1.23;;;;;;;10.73;100.00;98525.47;4886663;29;20230;-67
2023/05/11 02:57:11;;;;;;;4.83;1.30;;;;;;;10.74;100.00;98529.72;4906863;29;20226;-67
2023/05/11 02:59:38;;;;;;;4.13;1.37;;;;;;;10.76;100.00;98521.75;4890992;29;20244;-67
2023/05/11 03:02:05;;;;;;;3.00;1.63;;;;;;;10.71;100.00;98524.81;4891919;29;20298;-67
2023/05/11 03:04:33;;;;;;;2.83;1.40;;;;;;;10.77;100.00;98524.19;4889961;29;20736;-67
2023/05/11 03:07:00;;;;;;;2.43;1.20;;;;;;;10.80;100.00;98519.63;4903333;29;20244;-67
2023/05/11 03:09:27;;;;;;;2.73;1.30;;;;;;;10.78;100.00;98518.00;4905375;29;20611;-63
2023/05/11 03:11:55;;;;;;;4.77;2.37;;;;;;;10.77;100.00;98524.19;4886432;29;20264;-66
2023/05/11 03:14:22;;;;;;;5.77;1.50;;;;;;;10.75;100.00;98523.53;4905691;29;21119;-66
2023/05/11 03:16:49;;;;;;;1.60;1.20;;;;;;;10.73;100.00;98516.84;4890768;29;20305;-66
2023/05/11 03:19:17;;;;;;;2.67;1.30;;;;;;;10.75;100.00;98520.13;4896329;29;20234;-67
2023/05/11 03:21:46;;;;;;;2.73;1.53;;;;;;;10.74;100.00;98516.66;4892641;29;20227;-67
2023/05/11 03:24:13;;;;;;;3.67;1.40;;;;;;;10.73;100.00;98517.63;4910627;29;20237;-67
2023/05/11 03:26:43;;;;;;;4.40;1.63;;;;;;;10.77;100.00;98512.94;4892030;29;20246;-67
2023/05/11 03:29:12;;;;;;;4.57;1.27;;;;;;;10.80;100.00;98515.25;4908123;29;20233;-67
2023/05/11 03:31:39;;;;;;;1.83;1.50;;;;;;;10.76;100.00;98517.34;5154529;23;21346;-66
2023/05/11 03:34:06;;;;;;;3.60;1.30;;;;;;;10.78;100.00;98519.81;4894425;29;20579;-66
2023/05/11 03:36:38;;;;;;;2.30;1.27;;;;;;;10.81;100.00;98516.88;4910415;29;20830;-66
2023/05/11 03:39:06;;;;;;;5.40;1.43;;;;;;;10.82;100.00;98517.69;4891636;29;20231;-66
2023/05/11 03:41:34;;;;;;;3.60;1.60;;;;;;;10.82;100.00;98515.91;4882790;29;20241;-66
2023/05/11 03:44:05;;;;;;;4.97;1.77;;;;;;;10.79;100.00;98513.59;4880426;29;20238;-66
2023/05/11 03:46:38;;;;;;;5.17;1.53;;;;;;;10.77;100.00;98518.97;4875409;29;20240;-66
2023/05/11 03:49:08;;;;;;;3.93;1.40;;;;;;;10.83;100.00;98511.50;4873016;29;20256;-67
2023/05/11 03:51:35;;;;;;;2.33;1.50;;;;;;;10.82;100.00;98512.47;4884168;29;20254;-67
2023/05/11 03:54:02;;;;;;;2.87;1.53;;;;;;;10.83;100.00;98506.28;4880478;29;20240;-66
2023/05/11 03:56:29;;;;;;;4.23;1.83;;;;;;;10.84;100.00;98503.53;4885683;29;20242;-66
2023/05/11 03:58:56;;;;;;;3.37;1.40;;;;;;;10.81;100.00;98506.44;4881020;29;20234;-66
2023/05/11 04:01:23;;;;;;;5.20;1.90;;;;;;;10.84;100.00;98508.75;4884862;29;20592;-67
2023/05/11 04:03:52;;;;;;;2.80;1.50;;;;;;;10.85;100.00;98507.78;4885050;29;20239;-67
2023/05/11 04:06:19;;;;;;;4.50;2.27;;;;;;;10.85;100.00;98504.31;4886151;29;20231;-67
2023/05/11 04:08:51;;;;;;;4.57;2.07;;;;;;;10.86;100.00;98508.56;4883817;29;20234;-67
2023/05/11 04:11:18;;;;;;;5.17;2.90;;;;;;;10.86;100.00;98513.78;4883892;29;20346;-67
2023/05/11 04:13:44;;;;;;;3.73;2.43;;;;;;;10.84;100.00;98506.13;4870472;29;20218;-66
2023/05/11 04:16:11;;;;;;;4.60;3.20;;;;;;;10.81;100.00;98506.44;4884393;29;20715;-67
2023/05/11 04:18:37;;;;;;;8.00;3.27;;;;;;;10.79;100.00;98511.00;4886872;29;20227;-67
2023/05/11 04:21:06;;;;;;;10.30;3.27;;;;;;;10.76;100.00;98509.50;4882506;29;20247;-66
2023/05/11 04:23:32;;;;;;;3.80;2.90;;;;;;;10.73;100.00;98509.00;4869467;29;20326;-66
2023/05/11 04:25:59;;;;;;;3.43;2.73;;;;;;;10.72;100.00;98509.97;4882907;29;20298;-66
2023/05/11 04:28:26;;;;;;;6.93;2.80;;;;;;;10.69;100.00;98511.09;4873853;29;20238;-66
2023/05/11 04:30:53;;;;;;;5.47;3.20;;;;;;;10.72;100.00;98515.19;4879769;29;20696;-66
2023/05/11 04:33:20;;;;;;;5.30;3.50;;;;;;;10.73;100.00;98516.84;4884235;29;20241;-66
2023/05/11 04:35:50;;;;;;;5.57;3.60;;;;;;;10.74;100.00;98513.25;4884333;29;20239;-66
2023/05/11 04:38:18;;;;;;;6.20;3.63;;;;;;;10.69;100.00;98518.13;4881649;29;20243;-66
2023/05/11 04:40:45;;;;;;;6.70;3.80;;;;;;;10.67;100.00;98513.03;4870467;29;20224;-66
2023/05/11 04:43:12;;;;;;;8.20;3.93;;;;;;;10.67;100.00;98520.06;4884453;29;20239;-66
2023/05/11 04:45:39;;;;;;;7.37;4.30;;;;;;;10.63;100.00;98517.75;4884599;29;20354;-66
2023/05/11 04:48:06;;;;;;;7.77;3.93;;;;;;;10.70;100.00;98511.94;4883190;29;20889;-67
2023/05/11 04:50:33;;;;;;;5.90;4.30;;;;;;;10.72;100.00;98523.84;4873341;29;20243;-67
2023/05/11 04:53:00;;;;;;;7.83;4.80;;;;;;;10.76;100.00;98524.38;4880012;29;20243;-67
2023/05/11 04:55:28;;;;;;;5.87;3.90;;;;;;;10.81;100.00;98523.88;4882361;29;20243;-67
2023/05/11 04:57:55;;;;;;;4.80;3.80;;;;;;;10.81;100.00;98526.50;4882902;29;20238;-67
2023/05/11 05:00:22;;;;;;;5.70;3.83;;;;;;;10.84;100.00;98524.41;4873033;29;20243;-67
2023/05/11 05:02:50;;;;;;;4.30;3.23;;;;;;;10.88;100.00;98520.50;4881526;29;20770;-67
2023/05/11 05:05:17;;;;;;;4.97;3.20;;;;;;;10.95;100.00;98528.53;4885912;29;20778;-67
2023/05/11 05:07:44;;;;;;;5.57;3.47;;;;;;;10.97;100.00;98523.97;4871427;29;20216;-67
2023/05/11 05:10:11;;;;;;;5.57;3.67;;;;;;;10.98;100.00;98525.59;4875041;29;20258;-67
2023/05/11 05:12:40;;;;;;;6.20;3.87;;;;;;;10.99;100.00;98527.25;4871499;29;20236;-67
2023/05/11 05:15:07;;;;;;;4.93;3.73;;;;;;;10.98;100.00;98530.84;4871515;29;20247;-67
2023/05/11 05:17:35;;;;;;;6.33;3.30;;;;;;;11.06;100.00;98537.91;4884464;29;20236;-67
2023/05/11 05:20:02;;;;;;;5.97;2.97;;;;;;;11.18;100.00;98539.25;4878405;29;20264;-66
2023/05/11 05:22:30;;;;;;;4.20;3.10;;;;;;;11.19;100.00;98540.88;4873315;29;20253;-66
2023/05/11 05:24:59;;;;;;;3.53;3.00;;;;;;;11.27;100.00;98539.28;4878968;29;20596;-66
2023/05/11 05:27:26;;;;;;;7.23;3.10;;;;;;;11.34;100.00;98542.91;4883284;29;20265;-67
2023/05/11 05:30:00;;;;;;;3.50;3.20;;;;;;;11.41;100.00;98540.50;4876803;29;20738;-66
2023/05/11 05:32:27;;;;;;;4.00;3.00;;;;;;;11.46;100.00;98535.59;4884240;29;20246;-66
2023/05/11 05:34:59;;;;;;;3.97;2.93;;;;;;;11.43;100.00;98538.53;4880461;29;20237;-66
2023/05/11 05:37:27;;;;;;;4.17;2.83;;;;;;;11.47;100.00;98543.28;4886033;29;20232;-66
2023/05/11 05:39:58;;;;;;;3.93;3.23;;;;;;;11.48;100.00;98542.28;4879544;29;20247;-66
2023/05/11 05:42:25;;;;;;;4.40;3.87;;;;;;;11.52;100.00;98538.38;4882990;29;20248;-66
2023/05/11 05:45:18;;;;;;;4.63;3.00;;;;;;;11.56;100.00;98545.91;4881307;29;20239;-66
2023/05/11 05:47:44;;;;;;;12.73;2.90;;;;;;;11.59;100.00;98543.81;4881324;29;20631;-66
2023/05/11 05:50:11;;;;;;;4.20;2.60;;;;;;;11.59;100.00;98545.59;4867662;29;20235;-66
2023/05/11 05:52:40;;;;;;;3.87;2.97;;;;;;;11.63;100.00;98550.38;4880931;29;20223;-66
2023/05/11 05:55:08;;;;;;;2.77;2.07;;;;;;;11.64;100.00;98553.78;4880597;29;20648;-66
2023/05/11 05:57:35;;;;;;;2.53;2.27;;;;;;;11.71;100.00;98559.19;4881771;29;20252;-66
2023/05/11 06:00:04;;;;;;;3.53;2.57;;;;;;;11.75;100.00;98557.88;4868119;29;20760;-66
2023/05/11 06:02:41;;;;;;;2.77;2.30;;;;;;;11.63;100.00;98550.38;4878897;29;20247;-66
2023/05/11 06:05:11;;;;;;;5.23;2.43;;;;;;;11.79;100.00;98557.41;4872938;29;20242;-66
2023/05/11 06:07:37;;;;;;;4.87;2.97;;;;;;;11.73;100.00;98560.66;4883000;29;20231;-66
2023/05/11 06:10:05;;;;;;;3.83;2.80;;;;;;;11.67;100.00;98556.88;4880342;29;20273;-66
2023/05/11 06:12:32;;;;;;;5.40;3.10;;;;;;;11.79;100.00;98569.66;4882273;29;20595;-66
2023/05/11 06:14:59;;;;;;;5.17;3.00;;;;;;;11.75;100.00;98568.34;4878448;29;20252;-66
2023/05/11 06:17:27;;;;;;;3.77;3.13;;;;;;;11.75;100.00;98569.19;4871695;29;20332;-66
2023/05/11 06:20:00;;;;;;;4.70;3.10;;;;;;;11.76;100.00;98573.44;4879610;29;20244;-66
2023/05/11 06:22:29;;;;;;;4.50;3.13;;;;;;;11.76;100.00;98568.19;4872277;29;20260;-66
2023/05/11 06:24:58;;;;;;;4.07;2.93;;;;;;;11.83;100.00;98565.75;4880014;29;20334;-66
2023/05/11 06:27:30;;;;;;;5.03;3.13;;;;;;;11.87;100.00;98564.44;4872321;29;20267;-66
2023/05/11 06:29:59;;;;;;;3.90;3.00;;;;;;;12.05;100.00;98568.75;4869968;29;20730;-66
2023/05/11 06:32:30;;;;;;;6.93;3.27;;;;;;;12.06;100.00;98565.16;4885448;29;20280;-66
2023/05/11 06:35:00;;;;;;;3.40;2.80;;;;;;;12.02;98.64;98567.31;4881886;29;21059;-66
2023/05/11 06:37:29;;;;;;;3.87;2.80;;;;;;;12.29;97.74;98567.94;4880768;29;20247;-66
2023/05/11 06:39:59;;;;;;;5.77;2.90;;;;;;;12.08;98.24;98564.03;4875752;29;20312;-66
2023/05/11 06:42:27;;;;;;;3.57;2.77;;;;;;;12.35;99.25;98572.53;4882960;29;20248;-66
2023/05/11 06:45:08;;;;;;;5.13;3.00;;;;;;;12.35;97.84;98566.50;4862697;29;20242;-66
2023/05/11 06:47:36;;;;;;;3.87;2.30;;;;;;;12.55;97.93;98566.97;4885715;29;20236;-66
2023/05/11 06:50:05;;;;;;;3.90;2.50;;;;;;;12.67;97.35;98563.03;4877499;29;20239;-66
2023/05/11 06:52:32;;;;;;;5.43;2.53;;;;;;;12.82;97.08;98563.16;4880726;29;20233;-66
2023/05/11 06:55:00;;;;;;;3.67;2.87;;;;;;;12.90;95.92;98556.28;4869550;29;20236;-66
2023/05/11 06:57:27;;;;;;;3.17;2.17;;;;;;;13.01;94.10;98569.00;4872737;29;20235;-66
2023/05/11 06:59:58;;;;;;;6.00;2.73;;;;;;;13.17;95.87;98564.72;4880058;29;20590;-66
2023/05/11 07:02:25;;;;;;;4.53;2.40;;;;;;;13.27;94.96;98565.34;4883058;29;20302;-66
2023/05/11 07:04:55;;;;;;;3.80;2.60;;;;;;;13.26;94.28;98566.31;4872597;29;20233;-66
2023/05/11 07:07:23;;;;;;;7.33;2.70;;;;;;;13.27;97.41;98566.13;4885331;29;20265;-66
2023/05/11 07:09:50;;;;;;;3.97;2.77;;;;;;;13.01;96.38;98563.78;4879950;29;20276;-66
2023/05/11 07:12:16;;;;;;;3.87;2.50;;;;;;;12.97;97.72;98563.31;4884184;29;20735;-66
2023/05/11 07:14:43;;;;;;;4.83;2.27;;;;;;;12.86;97.15;98553.19;4877748;29;20276;-66
2023/05/11 07:17:09;;;;;;;3.23;2.13;;;;;;;12.96;94.75;98558.22;4883629;29;20237;-66
2023/05/11 07:19:36;;;;;;;2.50;2.17;;;;;;;13.08;95.39;98574.41;4882657;29;20237;-66
2023/05/11 07:22:04;;;;;;;2.37;2.10;;;;;;;13.30;95.78;98572.88;4880299;29;20240;-66
2023/05/11 07:24:32;;;;;;;3.13;2.07;;;;;;;13.39;89.58;98566.59;4883838;29;20254;-66
2023/05/11 07:26:59;;;;;;;4.37;2.13;;;;;;;13.43;90.21;98569.72;4879588;29;20240;-66
2023/05/11 07:29:26;;;;;;;3.33;2.30;;;;;;;13.51;86.69;98571.50;4880327;29;20540;-66
2023/05/11 07:31:52;;;;;;;2.30;1.93;;;;;;;13.35;88.48;98567.09;4870109;29;20593;-66
2023/05/11 07:34:19;;;;;;;3.40;2.20;;;;;;;13.24;87.13;98569.13;4879746;29;20235;-68
2023/05/11 07:36:46;;;;;;;2.93;2.63;;;;;;;13.04;86.26;98562.63;4878813;29;20232;-68
2023/05/11 07:39:15;;;;;;;3.47;2.20;;;;;;;13.01;89.67;98566.41;4882597;29;20230;-68
2023/05/11 07:41:42;;;;;;;2.67;2.00;;;;;;;13.01;92.63;98571.63;4879320;29;20278;-68
2023/05/11 07:44:10;;;;;;;3.20;2.40;;;;;;;12.98;92.90;98569.34;4881894;29;20259;-68
2023/05/11 07:46:36;;;;;;;3.80;2.60;;;;;;;12.91;89.83;98576.25;4881425;29;20665;-68
2023/05/11 07:49:03;;;;;;;4.20;2.60;;;;;;;12.84;90.24;98571.66;4880372;29;20243;-67
2023/05/11 07:51:30;;;;;;;4.00;2.80;;;;;;;12.87;91.59;98575.78;4880071;29;20595;-67
2023/05/11 07:53:56;;;;;;;3.93;2.90;;;;;;;12.74;93.30;98573.66;4878850;29;20240;-67
2023/05/11 07:56:23;;;;;;;4.17;2.93;;;;;;;12.97;93.27;98567.72;4877611;29;20287;-67
2023/05/11 07:58:50;;;;;;;3.90;3.27;;;;;;;12.94;92.17;98574.13;4876243;29;20353;-67
2023/05/11 08:01:17;;;;;;;5.17;2.67;;;;;;;13.04;91.99;98571.31;4878991;29;20261;-67
2023/05/11 08:03:44;;;;;;;4.80;2.90;;;;;;;13.03;94.36;98579.34;4876609;29;20239;-67
2023/05/11 08:06:11;;;;;;;7.37;4.03;;;;;;;13.14;92.30;98576.38;4881064;29;20304;-67
2023/05/11 08:08:37;;;;;;;5.77;3.90;;;;;;;13.29;92.84;98572.03;4882429;29;20231;-67
2023/05/11 08:11:04;;;;;;;3.60;3.00;;;;;;;13.34;91.96;98578.56;4881176;29;20245;-67
2023/05/11 08:13:31;;;;;;;4.93;3.03;;;;;;;13.63;91.62;98585.03;4880404;29;20326;-67
2023/05/11 08:15:59;;;;;;;4.60;3.57;;;;;;;13.60;89.34;98577.50;4875735;29;20233;-67
2023/05/11 08:18:26;;;;;;;4.90;3.43;;;;;;;13.65;88.27;98573.41;4879286;29;20315;-67
2023/05/11 08:20:53;;;;;;;3.40;2.90;;;;;;;13.90;87.56;98575.88;4879783;29;20756;-67
2023/05/11 08:23:20;;;;;;;7.83;3.10;;;;;;;14.10;86.13;98572.78;4880700;29;20238;-67
2023/05/11 08:25:51;;;;;;;8.43;3.30;;;;;;;13.81;84.57;98574.28;4877636;29;20231;-68
2023/05/11 08:28:18;;;;;;;3.73;2.83;;;;;;;13.86;87.32;98570.16;4885301;29;20565;-67
2023/05/11 08:30:44;;;;;;;5.60;3.27;;;;;;;13.96;86.85;98566.50;4882574;29;20248;-68
2023/05/11 08:33:12;;;;;;;8.43;3.43;;;;;;;13.84;86.61;98572.13;4884410;29;20289;-68
2023/05/11 08:35:39;;;;;;;4.43;3.17;;;;;;;14.06;86.95;98574.97;4882856;29;20225;-68
2023/05/11 08:38:06;;;;;;;4.50;3.13;;;;;;;14.09;86.10;98576.41;4885194;29;20328;-67
2023/05/11 08:40:32;;;;;;;4.63;3.87;;;;;;;13.79;87.32;98573.63;4884017;29;20715;-67
2023/05/11 08:43:00;;;;;;;6.83;3.63;;;;;;;13.84;85.46;98571.31;4883275;29;20292;-67
2023/05/11 08:45:27;;;;;;;5.83;3.90;;;;;;;13.90;84.47;98572.44;4885163;29;20246;-67
2023/05/11 08:47:54;;;;;;;6.07;3.60;;;;;;;14.03;87.77;98578.72;4880473;29;21042;-67
2023/05/11 08:50:22;;;;;;;8.13;3.90;;;;;;;14.19;85.85;98571.75;4887436;29;20784;-68
2023/05/11 08:52:49;;;;;;;6.67;4.23;;;;;;;13.94;84.62;98578.97;4881813;29;20327;-67
2023/05/11 08:55:15;;;;;;;5.80;3.70;;;;;;;13.73;82.96;98570.75;4884109;29;20315;-67
2023/05/11 08:57:45;;;;;;;6.53;3.90;;;;;;;13.96;81.83;98577.00;4881598;29;20625;-67
2023/05/11 09:00:12;;;;;;;5.10;3.60;;;;;;;13.94;84.64;98577.16;4876506;29;20265;-67
2023/05/11 09:02:40;;;;;;;6.10;3.53;;;;;;;13.94;85.58;98585.03;4920411;23;20264;-67
2023/05/11 09:05:08;;;;;;;6.80;4.30;;;;;;;13.45;87.49;98587.91;4929024;29;20245;-67
2023/05/11 09:07:39;;;;;;;6.50;4.53;;;;;;;13.60;87.91;98583.59;4929776;29;20240;-67
2023/05/11 09:10:06;;;;;;;6.70;4.13;;;;;;;13.62;88.08;98581.63;4926356;29;20288;-67
2023/05/11 09:12:33;;;;;;;4.97;4.00;;;;;;;13.61;87.81;98584.38;4929250;29;20267;-67
2023/05/11 09:14:59;;;;;;;4.70;3.70;;;;;;;13.72;87.91;98582.22;4926680;29;20241;-67
2023/05/11 09:17:27;;;;;;;5.23;3.67;;;;;;;13.87;86.68;98574.41;4929369;29;20245;-67
2023/05/11 09:20:00;;;;;;;4.90;3.80;;;;;;;14.06;82.94;98577.59;4926616;29;20243;-67
2023/05/11 09:22:27;;;;;;;5.70;3.80;;;;;;;14.37;79.79;98581.94;4927943;29;20246;-67
2023/05/11 09:25:02;;;;;;;5.73;4.23;;;;;;;14.13;82.14;98578.53;4926330;29;20246;-67
2023/05/11 09:27:29;;;;;;;6.20;4.27;;;;;;;14.62;81.63;98573.84;4928856;29;20235;-67
2023/05/11 09:30:11;;;;;;;8.33;4.77;;;;;;;14.83;74.56;98578.47;4926416;29;20332;-67
2023/05/11 09:32:48;;;;;;;6.27;3.60;;;;;;;15.11;77.78;98577.81;4927916;29;20235;-67
2023/05/11 09:35:22;;;;;;;7.33;4.37;;;;;;;15.33;76.38;98572.66;4926640;29;20232;-67
2023/05/11 09:38:04;;;;;;;10.13;5.27;;;;;;;15.37;75.84;98576.53;4924532;29;20239;-67
2023/05/11 09:40:33;;;;;;;9.47;5.73;;;;;;;16.05;73.70;98575.50;4928823;29;20320;-67
2023/05/11 09:43:00;;;;;;;8.97;4.47;;;;;;;16.16;74.46;98579.44;4915638;29;20255;-67
2023/05/11 09:45:37;;;;;;;7.23;3.97;;;;;;;15.83;72.42;98569.38;4928655;29;20246;-67
2023/05/11 09:48:04;;;;;;;7.80;4.70;;;;;;;15.54;74.68;98573.72;4925924;29;20618;-67
2023/05/11 09:50:35;;;;;;;5.80;3.83;;;;;;;15.72;75.54;98574.13;4910476;29;20348;-67
2023/05/11 09:53:02;;;;;;;6.97;4.10;;;;;;;15.20;73.89;98571.47;4925457;29;20245;-67
2023/05/11 09:55:28;;;;;;;8.83;4.63;;;;;;;15.39;75.03;98569.28;4928308;29;20233;-67
2023/05/11 09:57:58;;;;;;;6.27;4.50;;;;;;;15.48;75.44;98568.19;4908684;29;20246;-67
2023/05/11 10:00:25;;;;;;;6.73;4.47;;;;;;;15.95;74.32;98567.91;4928546;29;20233;-67
2023/05/11 10:03:03;;;;;;;7.67;4.30;;;;;;;15.93;72.99;98564.63;4914262;29;20294;-67
2023/05/11 10:05:31;;;;;;;7.83;4.70;;;;;;;15.91;73.70;98561.38;4928839;29;20709;-67
2023/05/11 10:07:59;;;;;;;10.27;4.83;;;;;;;16.20;69.97;98563.09;4925310;29;20256;-67
2023/05/11 10:10:28;;;;;;;6.27;4.77;;;;;;;16.08;72.64;98565.41;4927657;29;20230;-67
2023/05/11 10:12:58;;;;;;;11.63;4.67;;;;;;;15.62;73.59;98561.25;4925150;29;20277;-67
2023/05/11 10:15:27;;;;;;;8.37;5.03;;;;;;;15.41;70.42;98564.66;4928599;29;20233;-67
2023/05/11 10:17:54;;;;;;;6.77;4.93;;;;;;;15.25;72.45;98556.97;4925362;29;20325;-67
2023/05/11 10:20:21;;;;;;;9.10;4.77;;;;;;;15.68;72.55;98553.63;4928172;29;20260;-67
2023/05/11 10:22:52;;;;;;;6.50;4.63;;;;;;;15.94;74.94;98559.19;4924784;29;20234;-67
2023/05/11 10:25:21;;;;;;;6.87;5.03;;;;;;;16.19;72.78;98561.47;4928155;29;20285;-67
2023/05/11 10:27:48;;;;;;;7.63;5.20;;;;;;;16.27;67.79;98555.25;4925080;29;20293;-67
2023/05/11 10:30:16;;;;;;;8.45;5.32;;;;;;;16.44;66.73;98558.41;4927625;29;20480;-67
2023/05/11 10:32:44;;;;;;;8.37;4.93;;;;;;;16.41;66.70;98555.34;4925013;29;20318;-67
2023/05/11 10:35:11;;;;;;;6.83;4.27;;;;;;;16.72;65.72;98559.44;4927957;29;20717;-67
2023/05/11 10:37:37;;;;;;;8.10;4.77;;;;;;;16.67;69.13;98550.28;4927810;29;20242;-67
2023/05/11 10:40:06;;;;;;;8.47;4.47;;;;;;;16.85;65.87;98549.00;4925375;29;20233;-67
2023/05/11 10:42:57;;;;;;;9.13;5.30;;;;;;;16.39;67.62;98545.03;4927653;29;20758;-67
2023/05/11 10:45:29;;;;;;;8.13;5.63;;;;;;;15.86;70.36;98550.59;4925009;29;20286;-67
2023/05/11 10:48:26;;;;;;;8.33;5.23;;;;;;;16.17;66.30;98549.47;4924654;29;20238;-67
2023/05/11 10:51:16;;;;;;;6.60;5.00;;;;;;;16.01;68.00;98543.47;4923508;29;20649;-67
2023/05/11 10:54:19;;;;;;;9.53;5.27;;;;;;;16.34;67.33;98544.78;4924157;29;20319;-67
2023/05/11 10:57:02;;;;;;;7.27;4.33;;;;;;;16.31;66.39;98543.31;4905390;29;20245;-67
2023/05/11 10:59:43;;;;;;;8.13;4.30;;;;;;;16.95;66.93;98551.28;4927373;29;20238;-67
2023/05/11 11:02:11;;;;;;;10.87;4.57;;;;;;;17.08;64.80;98542.63;4924446;29;20245;-67
2023/05/11 11:04:43;;;;;;;9.00;4.50;;;;;;;17.21;64.74;98541.91;4927580;29;20698;-67
2023/05/11 11:07:10;;;;;;;7.17;4.40;;;;;;;17.26;61.99;98545.56;4924752;29;20231;-67
2023/05/11 11:09:55;;;;;;;7.30;4.40;;;;;;;17.29;62.46;98538.28;4903524;29;20258;-67
2023/05/11 11:12:22;;;;;;;6.97;4.00;;;;;;;17.22;65.97;98538.25;4923652;29;20342;-67
2023/05/11 11:15:00;;;;;;;7.93;3.97;;;;;;;17.70;60.40;98535.56;4923885;28;20302;-66
2023/05/11 11:17:30;;;;;;;6.40;4.70;;;;;;;17.47;63.16;98543.03;4927380;29;20337;-66
2023/05/11 11:20:00;;;;;;;7.50;4.37;;;;;;;16.22;65.03;98533.94;4924293;29;20295;-66
2023/05/11 11:22:45;;;;;;;6.63;4.50;;;;;;;16.25;65.30;98530.13;4925319;29;20239;-66
2023/05/11 11:25:12;;;;;;;6.70;4.20;;;;;;;16.99;62.23;98526.16;4924644;29;20219;-66
2023/05/11 11:27:57;;;;;;;5.87;4.20;;;;;;;17.15;61.71;98525.03;4924543;29;20234;-66
2023/05/11 11:30:25;;;;;;;6.63;3.83;;;;;;;17.65;62.77;98524.00;4926979;29;20295;-66
2023/05/11 11:32:55;;;;;;;7.20;4.10;;;;;;;18.06;58.18;98530.97;4923963;29;20251;-66
2023/05/11 11:35:47;;;;;;;6.50;4.17;;;;;;;18.35;56.04;98515.75;4927439;29;20696;-66
2023/05/11 11:38:16;;;;;;;5.83;4.07;;;;;;;18.19;56.11;98518.78;4924251;29;20245;-68
2023/05/11 11:40:43;;;;;;;5.27;4.10;;;;;;;18.49;58.47;98510.47;4923975;29;20250;-68